createdAt,value
2022-10-31T00:02:24.410Z,10.36
2022-10-31T00:04:54.799Z,10.26
2022-10-31T00:07:25.384Z,10.35
2022-10-31T00:09:55.709Z,10.36
2022-10-31T00:12:28.447Z,10.41
2022-10-31T00:14:58.543Z,10.44
2022-10-31T00:17:28.771Z,10.33
2022-10-31T00:19:58.959Z,10.39
2022-10-31T00:22:29.458Z,10.50
2022-10-31T00:24:59.474Z,10.49
2022-10-31T00:27:32.424Z,10.43
2022-10-31T00:30:02.549Z,10.41
2022-10-31T00:32:34.305Z,10.28
2022-10-31T00:35:04.513Z,10.29
2022-10-31T00:37:34.535Z,10.34
2022-10-31T00:40:04.736Z,10.19
2022-10-31T00:42:38.312Z,10.15
2022-10-31T00:45:09.038Z,10.15
2022-10-31T00:47:39.184Z,10.27
2022-10-31T00:50:10.329Z,10.27
2022-10-31T00:52:41.902Z,10.33
2022-10-31T00:55:12.073Z,10.39
2022-10-31T00:57:45.014Z,10.31
2022-10-31T01:00:16.057Z,10.41
2022-10-31T01:02:46.389Z,10.38
2022-10-31T01:05:16.730Z,10.38
2022-10-31T01:07:49.236Z,10.34
2022-10-31T01:10:19.334Z,10.34
2022-10-31T01:12:53.343Z,10.25
2022-10-31T01:15:28.850Z,10.26
2022-10-31T01:17:59.269Z,10.32
2022-10-31T01:20:29.488Z,10.28
2022-10-31T01:22:59.739Z,10.34
2022-10-31T01:25:29.775Z,10.35
2022-10-31T01:28:02.698Z,10.35
2022-10-31T01:30:36.193Z,10.37
2022-10-31T01:33:06.385Z,10.42
2022-10-31T01:35:36.568Z,10.46
2022-10-31T01:38:06.742Z,10.34
2022-10-31T01:40:36.826Z,10.35
2022-10-31T01:43:13.528Z,10.40
2022-10-31T01:45:44.545Z,10.39
2022-10-31T01:48:17.967Z,10.33
2022-10-31T01:50:51.707Z,10.25
2022-10-31T01:53:25.897Z,10.27
2022-10-31T01:55:57.337Z,10.27
2022-10-31T01:58:35.748Z,10.24
2022-10-31T02:01:08.185Z,10.07
2022-10-31T02:03:39.470Z,10.05
2022-10-31T02:06:16.728Z,10.08
2022-10-31T02:08:47.576Z,10.07
2022-10-31T02:11:19.330Z,10.13
2022-10-31T02:13:52.450Z,10.12
2022-10-31T02:16:25.909Z,10.02
2022-10-31T02:18:57.482Z,9.98
2022-10-31T02:21:39.018Z,9.94
2022-10-31T02:24:36.067Z,9.95
2022-10-31T02:27:22.499Z,9.90
2022-10-31T02:30:08.709Z,9.89
2022-10-31T02:32:52.280Z,9.93
2022-10-31T02:35:37.176Z,9.95
2022-10-31T02:38:14.057Z,9.92
2022-10-31T02:40:52.889Z,9.95
2022-10-31T02:43:54.219Z,9.96
2022-10-31T02:46:31.788Z,9.94
2022-10-31T02:49:12.414Z,9.91
2022-10-31T02:51:43.493Z,9.84
2022-10-31T02:54:22.846Z,9.89
2022-10-31T02:56:59.995Z,9.89
2022-10-31T02:59:32.209Z,9.78
2022-10-31T03:02:16.368Z,9.82
2022-10-31T03:05:08.727Z,9.82
2022-10-31T03:07:48.947Z,9.84
2022-10-31T03:10:24.804Z,9.84
2022-10-31T03:13:05.541Z,9.83
2022-10-31T03:15:39.419Z,9.86
2022-10-31T03:18:12.034Z,9.77
2022-10-31T03:20:51.948Z,9.83
2022-10-31T03:23:23.920Z,9.89
2022-10-31T03:25:56.934Z,9.96
2022-10-31T03:28:34.547Z,10.00
2022-10-31T03:31:08.461Z,9.96
2022-10-31T03:33:45.378Z,9.97
2022-10-31T03:36:19.319Z,9.93
2022-10-31T03:38:51.566Z,9.92
2022-10-31T03:41:25.969Z,9.95
2022-10-31T03:44:02.023Z,9.96
2022-10-31T03:46:32.881Z,9.91
2022-10-31T03:49:03.484Z,9.94
2022-10-31T03:51:42.526Z,9.92
2022-10-31T03:54:19.769Z,9.88
2022-10-31T03:56:56.766Z,9.81
2022-10-31T03:59:33.179Z,9.74
2022-10-31T04:02:09.077Z,9.90
2022-10-31T04:04:40.816Z,9.84
2022-10-31T04:07:14.992Z,9.85
2022-10-31T04:09:49.940Z,9.78
2022-10-31T04:12:23.444Z,9.67
2022-10-31T04:15:32.305Z,9.60
2022-10-31T04:18:04.145Z,9.65
2022-10-31T04:20:35.759Z,9.70
2022-10-31T04:23:13.822Z,9.69
2022-10-31T04:25:45.288Z,9.78
2022-10-31T04:30:52.671Z,9.75
2022-10-31T04:33:22.903Z,9.76
2022-10-31T04:35:52.990Z,9.63
2022-10-31T04:38:25.807Z,9.60
2022-10-31T04:40:56.556Z,9.57
2022-10-31T04:43:45.512Z,9.60
2022-10-31T04:46:17.136Z,9.63
2022-10-31T04:48:47.301Z,9.61
2022-10-31T04:51:17.655Z,9.65
2022-10-31T04:53:50.519Z,9.75
2022-10-31T04:56:39.700Z,9.79
2022-10-31T04:59:17.177Z,9.69
2022-10-31T05:01:55.193Z,9.67
2022-10-31T05:04:34.746Z,9.71
2022-10-31T05:07:06.192Z,9.69
2022-10-31T05:09:38.971Z,9.64
2022-10-31T05:12:09.338Z,9.70
2022-10-31T05:15:22.390Z,9.67
2022-10-31T05:18:12.744Z,9.67
2022-10-31T05:21:02.920Z,9.67
2022-10-31T05:23:48.518Z,9.67
2022-10-31T05:26:22.050Z,9.70
2022-10-31T05:28:52.318Z,9.63
2022-10-31T05:31:22.563Z,9.73
2022-10-31T05:33:54.395Z,9.78
2022-10-31T05:36:24.581Z,9.64
2022-10-31T05:39:14.861Z,9.64
2022-10-31T05:41:50.362Z,9.70
2022-10-31T05:44:24.585Z,9.78
2022-10-31T05:47:18.079Z,9.84
2022-10-31T05:50:17.125Z,9.76
2022-10-31T05:52:57.478Z,9.78
2022-10-31T05:55:46.784Z,9.76
2022-10-31T05:58:24.907Z,9.76
2022-10-31T06:01:04.552Z,9.79
2022-10-31T06:03:34.783Z,9.88
2022-10-31T06:06:07.284Z,9.94
2022-10-31T06:08:40.973Z,9.96
2022-10-31T06:11:17.817Z,9.99
2022-10-31T06:14:11.115Z,9.95
2022-10-31T06:16:55.995Z,9.95
2022-10-31T06:19:44.605Z,9.93
2022-10-31T06:22:19.460Z,9.98
2022-10-31T06:24:49.543Z,10.05
2022-10-31T06:27:45.572Z,9.98
2022-10-31T06:30:21.708Z,9.97
2022-10-31T06:32:51.839Z,10.02
2022-10-31T06:35:23.719Z,10.03
2022-10-31T06:37:56.107Z,10.06
2022-10-31T06:40:41.898Z,10.03
2022-10-31T06:43:30.964Z,10.08
2022-10-31T06:46:23.873Z,10.12
2022-10-31T06:49:14.173Z,10.13
2022-10-31T06:51:57.246Z,10.13
2022-10-31T06:54:27.430Z,10.11
2022-10-31T06:56:58.447Z,10.09
2022-10-31T06:59:28.548Z,10.16
2022-10-31T07:02:13.101Z,10.18
2022-10-31T07:04:45.781Z,10.23
2022-10-31T07:07:22.396Z,10.21
2022-10-31T07:09:54.172Z,10.25
2022-10-31T07:12:37.846Z,10.30
2022-10-31T07:15:09.243Z,10.28
2022-10-31T07:17:42.719Z,10.14
2022-10-31T07:20:13.955Z,10.02
2022-10-31T07:22:59.048Z,10.05
2022-10-31T07:25:29.343Z,10.02
2022-10-31T07:28:31.592Z,9.90
2022-10-31T07:31:03.672Z,9.98
2022-10-31T07:33:37.140Z,9.99
2022-10-31T07:36:45.448Z,10.10
2022-10-31T07:39:16.428Z,10.00
2022-10-31T07:41:47.522Z,10.14
2022-10-31T07:44:21.359Z,10.17
2022-10-31T07:47:09.928Z,10.12
2022-10-31T07:50:01.604Z,10.17
2022-10-31T07:52:34.748Z,10.19
2022-10-31T07:55:23.495Z,10.33
2022-10-31T07:58:00.236Z,10.21
2022-10-31T08:00:37.959Z,10.39
2022-10-31T08:03:09.979Z,10.31
2022-10-31T08:06:15.637Z,10.47
2022-10-31T08:08:55.118Z,10.49
2022-10-31T08:11:26.594Z,10.40
2022-10-31T08:13:56.659Z,10.47
2022-10-31T08:16:27.649Z,10.45
2022-10-31T08:19:02.602Z,10.59
2022-10-31T08:21:38.586Z,10.46
2022-10-31T08:24:10.084Z,10.58
2022-10-31T08:26:40.582Z,10.57
2022-10-31T08:29:15.598Z,10.48
2022-10-31T08:31:46.713Z,10.58
2022-10-31T08:34:39.839Z,10.48
2022-10-31T08:37:41.898Z,10.48
2022-10-31T08:40:14.937Z,10.65
2022-10-31T08:42:45.122Z,10.60
2022-10-31T08:45:40.707Z,10.42
2022-10-31T08:48:17.940Z,10.68
2022-10-31T08:50:49.646Z,10.71
2022-10-31T08:53:23.738Z,10.54
2022-10-31T08:56:05.934Z,10.55
2022-10-31T08:58:40.119Z,10.52
2022-10-31T09:01:11.759Z,10.57
2022-10-31T09:03:42.494Z,10.61
2022-10-31T09:06:14.521Z,10.58
2022-10-31T09:08:47.725Z,10.57
2022-10-31T09:11:17.938Z,10.51
2022-10-31T09:14:06.508Z,10.72
2022-10-31T09:16:39.159Z,10.69
2022-10-31T09:19:13.580Z,10.74
2022-10-31T09:21:48.688Z,10.65
2022-10-31T09:24:21.529Z,10.83
2022-10-31T09:26:51.817Z,10.88
2022-10-31T09:29:30.733Z,10.67
2022-10-31T09:32:04.742Z,10.74
2022-10-31T09:34:40.989Z,10.73
2022-10-31T09:37:15.474Z,10.76
2022-10-31T09:39:48.840Z,10.80
2022-10-31T09:42:37.163Z,10.78
2022-10-31T09:48:45.027Z,10.61
2022-10-31T09:51:27.895Z,10.71
2022-10-31T09:54:13.008Z,10.83
2022-10-31T09:56:47.985Z,10.76
2022-10-31T09:59:28.477Z,10.74
2022-10-31T10:02:03.665Z,10.60
2022-10-31T10:04:46.470Z,10.72
2022-10-31T10:07:37.685Z,10.77
2022-10-31T10:10:20.407Z,10.71
2022-10-31T10:13:42.934Z,10.68
2022-10-31T10:16:24.187Z,10.73
2022-10-31T10:19:08.780Z,10.82
2022-10-31T10:21:47.886Z,10.77
2022-10-31T10:24:36.043Z,10.79
2022-10-31T10:27:20.642Z,10.69
2022-10-31T10:30:04.875Z,10.68
2022-10-31T10:32:50.953Z,10.64
2022-10-31T10:35:28.506Z,10.71
2022-10-31T10:38:04.200Z,10.72
2022-10-31T10:40:35.339Z,10.76
2022-10-31T10:43:26.851Z,10.77
2022-10-31T10:46:33.707Z,10.85
2022-10-31T10:49:16.713Z,10.77
2022-10-31T10:52:07.330Z,10.83
2022-10-31T10:54:57.895Z,10.90
2022-10-31T10:57:41.286Z,10.81
2022-10-31T11:00:22.257Z,10.79
2022-10-31T11:02:55.894Z,10.86
2022-10-31T11:05:27.734Z,10.86
2022-10-31T11:07:57.808Z,10.82
2022-10-31T11:10:28.369Z,11.04
2022-10-31T11:13:21.675Z,11.19
2022-10-31T11:16:08.221Z,11.11
2022-10-31T11:18:43.655Z,11.08
2022-10-31T11:21:27.261Z,11.17
2022-10-31T11:24:06.489Z,11.24
2022-10-31T11:26:39.056Z,11.00
2022-10-31T11:29:16.715Z,11.07
2022-10-31T11:31:49.534Z,11.02
2022-10-31T11:34:31.804Z,11.06
2022-10-31T11:37:07.178Z,11.18
2022-10-31T11:39:45.744Z,11.33
2022-10-31T11:42:17.738Z,11.39
2022-10-31T11:44:48.020Z,11.22
2022-10-31T11:47:21.128Z,11.26
2022-10-31T11:49:54.444Z,11.37
2022-10-31T11:52:28.423Z,11.24
2022-10-31T11:55:02.627Z,11.30
2022-10-31T11:57:35.301Z,11.41
2022-10-31T12:00:10.263Z,11.58
2022-10-31T12:02:43.002Z,11.48
2022-10-31T12:05:23.786Z,11.56
2022-10-31T12:07:54.312Z,11.59
2022-10-31T12:10:29.168Z,11.58
2022-10-31T12:13:12.223Z,11.58
2022-10-31T12:15:47.669Z,11.56
2022-10-31T12:18:40.786Z,11.45
2022-10-31T12:21:45.921Z,11.44
2022-10-31T12:24:26.823Z,11.37
2022-10-31T12:27:07.672Z,11.45
2022-10-31T12:29:56.939Z,11.50
2022-10-31T12:32:39.440Z,11.52
2022-10-31T12:35:44.866Z,11.51
2022-10-31T12:38:39.248Z,11.60
2022-10-31T12:41:24.384Z,11.44
2022-10-31T12:44:01.414Z,11.41
2022-10-31T12:46:56.363Z,11.44
2022-10-31T12:49:46.682Z,11.42
2022-10-31T12:52:36.110Z,11.46
2022-10-31T12:55:27.503Z,11.49
2022-10-31T12:58:03.068Z,11.53
2022-10-31T13:00:40.502Z,11.54
2022-10-31T13:03:25.311Z,11.56
2022-10-31T13:06:00.018Z,11.48
2022-10-31T13:08:38.247Z,11.54
2022-10-31T13:11:19.524Z,11.47
2022-10-31T13:13:56.554Z,11.54
2022-10-31T13:16:31.954Z,11.38
2022-10-31T13:19:07.739Z,11.28
2022-10-31T13:21:45.518Z,11.38
2022-10-31T13:24:21.355Z,11.42
2022-10-31T13:26:57.423Z,11.35
2022-10-31T13:29:34.356Z,11.40
2022-10-31T13:32:08.826Z,11.38
2022-10-31T13:34:44.353Z,11.39
2022-10-31T13:37:22.430Z,11.42
2022-10-31T13:40:11.755Z,11.35
2022-10-31T13:42:59.586Z,11.30
2022-10-31T13:45:30.712Z,11.33
2022-10-31T13:48:05.352Z,11.25
2022-10-31T13:50:36.924Z,11.38
2022-10-31T13:53:18.311Z,11.24
2022-10-31T13:55:50.862Z,11.28
2022-10-31T13:58:32.279Z,11.24
2022-10-31T14:01:16.806Z,11.31
2022-10-31T14:04:05.030Z,11.40
2022-10-31T14:06:46.632Z,11.39
2022-10-31T14:09:24.651Z,11.41
2022-10-31T14:11:56.004Z,11.40
2022-10-31T14:14:36.743Z,11.41
2022-10-31T14:17:07.367Z,11.37
2022-10-31T14:19:37.709Z,11.37
2022-10-31T14:22:08.164Z,11.35
2022-10-31T14:24:40.915Z,11.26
2022-10-31T14:27:40.202Z,11.25
2022-10-31T14:30:28.613Z,11.23
2022-10-31T14:33:03.408Z,11.25
2022-10-31T14:35:51.079Z,11.21
2022-10-31T14:38:45.676Z,11.24
2022-10-31T14:41:45.612Z,11.23
2022-10-31T14:44:41.270Z,11.20
2022-10-31T14:47:24.255Z,11.17
2022-10-31T14:50:17.898Z,11.12
2022-10-31T14:52:53.089Z,11.13
2022-10-31T14:55:25.183Z,11.17
2022-10-31T14:57:59.508Z,11.18
2022-10-31T15:00:35.121Z,11.08
2022-10-31T15:03:19.194Z,11.04
2022-10-31T15:05:54.057Z,10.95
2022-10-31T15:08:35.619Z,10.99
2022-10-31T15:11:16.473Z,11.07
2022-10-31T15:13:48.613Z,11.00
2022-10-31T15:16:21.916Z,11.02
2022-10-31T15:19:02.487Z,11.04
2022-10-31T15:21:33.454Z,11.01
2022-10-31T15:24:05.416Z,11.02
2022-10-31T15:26:41.712Z,11.04
2022-10-31T15:29:16.948Z,10.99
2022-10-31T15:31:53.834Z,10.98
2022-10-31T15:34:34.261Z,10.98
2022-10-31T15:37:04.859Z,10.99
2022-10-31T15:39:35.508Z,10.91
2022-10-31T15:42:06.226Z,11.03
2022-10-31T15:44:39.942Z,10.95
2022-10-31T15:47:14.520Z,10.91
2022-10-31T15:49:53.633Z,10.80
2022-10-31T15:52:31.451Z,10.86
2022-10-31T15:55:06.053Z,10.82
2022-10-31T15:57:37.310Z,10.79
2022-10-31T16:00:08.339Z,10.75
2022-10-31T16:02:38.620Z,10.79
2022-10-31T16:05:23.640Z,10.74
2022-10-31T16:07:56.678Z,10.72
2022-10-31T16:10:30.187Z,10.68
2022-10-31T16:13:00.646Z,10.74
2022-10-31T16:15:34.652Z,10.73
2022-10-31T16:18:06.826Z,10.73
2022-10-31T16:20:39.723Z,10.68
2022-10-31T16:23:09.847Z,10.65
2022-10-31T16:25:42.168Z,10.63
2022-10-31T16:28:20.213Z,10.67
2022-10-31T16:30:54.905Z,10.62
2022-10-31T16:33:28.964Z,10.64
2022-10-31T16:36:22.423Z,10.66
2022-10-31T16:38:54.119Z,10.64
2022-10-31T16:41:24.677Z,10.69
2022-10-31T16:43:55.635Z,10.67
2022-10-31T16:46:30.168Z,10.73
2022-10-31T16:49:01.026Z,10.63
2022-10-31T16:51:33.651Z,10.59
2022-10-31T16:54:03.707Z,10.55
2022-10-31T16:56:36.101Z,10.51
2022-10-31T16:59:15.852Z,10.56
2022-10-31T17:01:50.995Z,10.49
2022-10-31T17:04:21.146Z,10.49
2022-10-31T17:06:54.022Z,10.58
2022-10-31T17:09:24.131Z,10.59
2022-10-31T17:11:56.866Z,10.60
2022-10-31T17:14:27.049Z,10.60
2022-10-31T17:17:00.268Z,10.65
2022-10-31T17:19:30.618Z,10.59
2022-10-31T17:22:05.356Z,10.57
2022-10-31T17:24:35.443Z,10.57
2022-10-31T17:27:08.648Z,10.59
2022-10-31T17:29:38.759Z,10.54
2022-10-31T17:32:09.647Z,10.53
2022-10-31T17:34:40.760Z,10.53
2022-10-31T17:37:15.289Z,10.49
2022-10-31T17:39:45.410Z,10.51
2022-10-31T17:42:15.674Z,10.58
2022-10-31T17:44:45.797Z,10.57
2022-10-31T17:47:15.888Z,10.57
2022-10-31T17:49:47.056Z,10.55
2022-10-31T17:52:20.069Z,10.52
2022-10-31T17:54:50.344Z,10.52
2022-10-31T17:57:20.953Z,10.47
2022-10-31T17:59:52.169Z,10.52
2022-10-31T18:02:22.488Z,10.54
2022-10-31T18:04:52.868Z,10.53
2022-10-31T18:07:26.248Z,10.57
2022-10-31T18:09:57.506Z,10.58
2022-10-31T18:12:27.994Z,10.59
2022-10-31T18:15:01.216Z,10.56
2022-10-31T18:17:32.327Z,10.53
2022-10-31T18:20:02.428Z,10.47
2022-10-31T18:22:35.744Z,10.43
2022-10-31T18:25:06.099Z,10.46
2022-10-31T18:27:36.239Z,10.40
2022-10-31T18:30:06.739Z,10.39
2022-10-31T18:32:36.960Z,10.36
2022-10-31T18:35:07.551Z,10.37
2022-10-31T18:37:40.395Z,10.37
2022-10-31T18:40:11.783Z,10.40
2022-10-31T18:42:41.866Z,10.38
2022-10-31T18:45:32.598Z,10.32
2022-10-31T18:48:05.916Z,10.32
2022-10-31T18:50:35.966Z,10.31
2022-10-31T18:53:08.749Z,10.39
2022-10-31T18:55:45.478Z,10.34
2022-10-31T18:58:19.379Z,10.31
2022-10-31T19:00:56.420Z,10.33
2022-10-31T19:03:27.657Z,10.34
2022-10-31T19:05:58.833Z,10.31
2022-10-31T19:08:31.878Z,10.26
2022-10-31T19:11:07.546Z,10.31
2022-10-31T19:13:39.006Z,10.25
2022-10-31T19:16:10.811Z,10.29
2022-10-31T19:18:42.044Z,10.26
2022-10-31T19:21:14.233Z,10.24
2022-10-31T19:23:48.187Z,10.25
2022-10-31T19:26:18.508Z,10.26
2022-10-31T19:28:48.681Z,10.24
2022-10-31T19:31:19.331Z,10.26
2022-10-31T19:33:49.909Z,10.28
2022-10-31T19:36:22.075Z,10.23
2022-10-31T19:38:56.111Z,10.21
2022-10-31T19:41:30.150Z,10.25
2022-10-31T19:44:02.496Z,10.24
2022-10-31T19:46:52.371Z,10.23
2022-10-31T19:49:23.002Z,10.19
2022-10-31T19:51:54.182Z,10.21
2022-10-31T19:54:27.486Z,10.29
2022-10-31T19:56:57.572Z,10.18
2022-10-31T19:59:28.091Z,10.15
2022-10-31T20:01:58.390Z,10.22
2022-10-31T20:04:29.030Z,10.10
2022-10-31T20:06:59.210Z,10.08
2022-10-31T20:09:32.137Z,10.17
2022-10-31T20:12:02.540Z,10.15
2022-10-31T20:14:32.921Z,10.12
2022-10-31T20:17:03.090Z,10.08
2022-10-31T20:19:33.095Z,10.10
2022-10-31T20:22:03.436Z,10.14
2022-10-31T20:24:37.399Z,10.15
2022-10-31T20:27:07.661Z,10.10
2022-10-31T20:29:38.014Z,10.07
2022-10-31T20:32:08.763Z,10.07
2022-10-31T20:34:39.098Z,10.11
2022-10-31T20:37:09.157Z,10.02
2022-10-31T20:39:42.853Z,10.06
2022-10-31T20:42:12.871Z,10.12
2022-10-31T20:44:43.294Z,10.09
2022-10-31T20:47:13.428Z,10.13
2022-10-31T20:49:43.484Z,10.09
2022-10-31T20:52:13.660Z,10.10
2022-10-31T20:54:46.399Z,10.06
2022-10-31T20:57:16.628Z,10.05
2022-10-31T20:59:46.931Z,10.03
2022-10-31T21:02:18.413Z,10.00
2022-10-31T21:04:49.807Z,9.98
2022-10-31T21:07:20.413Z,10.02
2022-10-31T21:09:55.774Z,10.05
2022-10-31T21:12:25.976Z,10.08
2022-10-31T21:14:56.188Z,10.03
2022-10-31T21:17:26.323Z,9.96
2022-10-31T21:19:56.381Z,9.96
2022-10-31T21:22:26.447Z,9.95
2022-10-31T21:24:59.112Z,9.96
2022-10-31T21:27:29.311Z,9.97
2022-10-31T21:29:59.414Z,10.08
2022-10-31T21:32:29.489Z,10.05
2022-10-31T21:34:59.524Z,9.98
2022-10-31T21:37:29.600Z,9.99
2022-10-31T21:40:02.377Z,9.96
2022-10-31T21:42:32.448Z,10.04
2022-10-31T21:45:02.904Z,9.95
2022-10-31T21:47:33.005Z,9.96
2022-10-31T21:50:04.279Z,9.93
2022-10-31T21:52:34.576Z,9.97
2022-10-31T21:55:05.022Z,9.96
2022-10-31T21:57:35.246Z,10.03
2022-10-31T22:00:07.119Z,9.98
2022-10-31T22:02:39.685Z,10.04
2022-10-31T22:05:10.919Z,9.96
2022-10-31T22:07:40.925Z,9.97
2022-10-31T22:10:14.367Z,9.95
2022-10-31T22:12:44.562Z,9.94
2022-10-31T22:15:14.994Z,10.03
2022-10-31T22:17:45.049Z,9.94
2022-10-31T22:20:15.413Z,9.89
2022-10-31T22:22:45.632Z,9.91
2022-10-31T22:25:18.661Z,9.95
2022-10-31T22:27:48.716Z,9.94
2022-10-31T22:30:19.108Z,9.95
2022-10-31T22:32:49.975Z,9.88
2022-10-31T22:35:22.411Z,9.93
2022-10-31T22:37:52.513Z,9.92
2022-10-31T22:40:25.359Z,9.93
2022-10-31T22:42:55.575Z,9.92
2022-10-31T22:45:27.417Z,9.90
2022-10-31T22:47:57.433Z,9.85
2022-10-31T22:50:27.650Z,9.84
2022-10-31T22:53:00.603Z,9.85
2022-10-31T22:55:33.212Z,9.84
2022-10-31T22:58:03.591Z,9.76
2022-10-31T23:00:34.133Z,9.83
2022-10-31T23:03:04.734Z,9.86
2022-10-31T23:05:35.856Z,9.90
2022-10-31T23:08:06.726Z,9.89
2022-10-31T23:10:42.313Z,9.84
2022-10-31T23:13:24.864Z,9.78
2022-10-31T23:15:54.926Z,9.79
2022-10-31T23:18:48.550Z,9.74
2022-10-31T23:21:32.798Z,9.80
2022-10-31T23:24:03.044Z,9.81
2022-10-31T23:26:48.201Z,9.74
2022-10-31T23:29:18.228Z,9.81
2022-10-31T23:31:48.747Z,9.82
2022-10-31T23:34:18.889Z,9.81
2022-10-31T23:36:48.975Z,9.78
2022-10-31T23:39:21.368Z,9.78
2022-10-31T23:41:57.008Z,9.74
2022-10-31T23:44:27.079Z,9.77
2022-10-31T23:46:57.113Z,9.79
2022-10-31T23:49:28.854Z,9.75
2022-10-31T23:51:59.485Z,9.75
2022-10-31T23:54:31.230Z,9.71
2022-10-31T23:57:04.512Z,9.72
2022-10-31T23:59:35.287Z,9.73
